Steep Rock, Canada
Current Conditions -  °F | °C
As of 12:00 PM on Saturday 20 Dec 2014 (Local Time) from CYDN Reporting Station
Overcast Overcast  
Wind Chill: 17°   Ceiling: 1400
Heat Index: 23°   Visibility: 9mi
Dew Point: 21°   Wind: 5mph
Humidity: 93%   Direction: 110°ESE
Pressure: 29.9"   Gusts: NA
Location:  51.43°N, 98.8°W
Report Text: CYDN 201800Z AUTO 11004KT 9SM OVC014 M05/M06 A2990 RMK SLP144
Loading
Personal Weather Stations






























Interactive Weather Map New forecast layout! Learn more

10-Day Weather Forecast

Advertisements
Track Severe Weather on mobile